createdAt,value
2023-04-18T00:01:30.192Z,8.5
2023-04-18T00:04:18.676Z,8.4
2023-04-18T00:07:07.675Z,8.4
2023-04-18T00:09:55.561Z,8.3
2023-04-18T00:12:43.237Z,8.2
2023-04-18T00:15:30.876Z,8.2
2023-04-18T00:18:18.582Z,8.1
2023-04-18T00:21:06.380Z,8.1
2023-04-18T00:23:54.075Z,8.1
2023-04-18T00:26:41.748Z,8.1
2023-04-18T00:29:29.420Z,8
2023-04-18T00:32:17.013Z,8
2023-04-18T00:35:04.776Z,8
2023-04-18T00:37:52.648Z,8
2023-04-18T00:40:40.326Z,8
2023-04-18T00:43:27.930Z,8
2023-04-18T00:46:15.740Z,8
2023-04-18T00:49:03.546Z,7.9
2023-04-18T00:51:51.455Z,7.8
2023-04-18T00:54:39.426Z,7.8
2023-04-18T00:57:27.052Z,7.8
2023-04-18T01:00:14.874Z,7.7
2023-04-18T01:03:03.127Z,7.6
2023-04-18T01:05:51.319Z,7.6
2023-04-18T01:08:39.100Z,7.5
2023-04-18T01:11:26.965Z,7.5
2023-04-18T01:14:14.752Z,7.5
2023-04-18T01:17:02.918Z,7.5
2023-04-18T01:19:50.543Z,7.5
2023-04-18T01:22:38.174Z,7.4
2023-04-18T01:25:25.767Z,7.4
2023-04-18T01:28:13.548Z,7.4
2023-04-18T01:31:01.256Z,7.3
2023-04-18T01:33:49.104Z,7.3
2023-04-18T01:36:36.793Z,7.2
2023-04-18T01:39:24.512Z,7.2
2023-04-18T01:42:12.279Z,7.2
2023-04-18T01:45:00.138Z,7.1
2023-04-18T01:47:47.742Z,7
2023-04-18T01:50:35.545Z,7
2023-04-18T01:53:23.158Z,7
2023-04-18T01:56:10.755Z,7
2023-04-18T01:59:00.358Z,6.9
2023-04-18T02:01:48.387Z,6.9
2023-04-18T02:04:36.361Z,6.9
2023-04-18T02:07:24.140Z,6.8
2023-04-18T02:10:11.980Z,6.8
2023-04-18T02:12:59.757Z,6.8
2023-04-18T02:15:47.541Z,6.7
2023-04-18T02:18:35.637Z,6.7
2023-04-18T02:21:23.302Z,6.6
2023-04-18T02:24:11.013Z,6.6
2023-04-18T02:26:59.031Z,6.6
2023-04-18T02:29:46.767Z,6.5
2023-04-18T02:32:35.745Z,6.5
2023-04-18T02:35:23.659Z,6.4
2023-04-18T02:38:11.398Z,6.4
2023-04-18T02:40:59.193Z,6.4
2023-04-18T02:43:46.961Z,6.4
2023-04-18T02:46:34.740Z,6.3
2023-04-18T02:49:22.496Z,6.3
2023-04-18T02:52:10.306Z,6.3
2023-04-18T02:54:58.040Z,6.3
2023-04-18T02:57:45.721Z,6.2
2023-04-18T03:00:33.297Z,6.2
2023-04-18T03:03:21.155Z,6.2
2023-04-18T03:06:09.037Z,6.2
2023-04-18T03:08:57.007Z,6.1
2023-04-18T03:11:44.683Z,6.1
2023-04-18T03:14:32.465Z,6.1
2023-04-18T03:17:23.393Z,6.1
2023-04-18T03:20:11.272Z,6.1
2023-04-18T03:22:59.025Z,6.1
2023-04-18T03:25:46.871Z,6
2023-04-18T03:28:34.663Z,6
2023-04-18T03:31:22.553Z,6
2023-04-18T03:34:10.497Z,5.9
2023-04-18T03:36:58.315Z,5.9
2023-04-18T03:39:46.177Z,5.8
2023-04-18T03:42:33.985Z,5.8
2023-04-18T03:45:21.716Z,5.8
2023-04-18T03:48:09.666Z,5.7
2023-04-18T03:50:57.496Z,5.8
2023-04-18T03:53:45.165Z,5.8
2023-04-18T03:56:33.043Z,5.8
2023-04-18T03:59:20.782Z,5.8
2023-04-18T04:02:08.709Z,5.8
2023-04-18T04:04:56.683Z,5.8
2023-04-18T04:07:44.700Z,5.7
2023-04-18T04:10:32.492Z,5.8
2023-04-18T04:13:20.396Z,5.8
2023-04-18T04:16:08.215Z,5.8
2023-04-18T04:18:55.956Z,5.7
2023-04-18T04:21:43.665Z,5.7
2023-04-18T04:24:31.372Z,5.7
2023-04-18T04:27:19.188Z,5.7
2023-04-18T04:30:07.112Z,5.7
2023-04-18T04:32:55.040Z,5.7
2023-04-18T04:35:43.057Z,5.7
2023-04-18T04:38:31.207Z,5.7
2023-04-18T04:41:18.968Z,5.7
2023-04-18T04:44:06.703Z,5.7
2023-04-18T04:46:54.705Z,5.7
2023-04-18T04:49:44.629Z,5.7
2023-04-18T04:52:32.559Z,5.7
2023-04-18T04:55:20.339Z,5.7
2023-04-18T04:58:08.131Z,5.8
2023-04-18T05:00:55.855Z,5.8
2023-04-18T05:03:44.183Z,5.9
2023-04-18T05:06:32.028Z,6
2023-04-18T05:09:19.726Z,6
2023-04-18T05:12:07.553Z,6.1
2023-04-18T05:14:55.431Z,6.2
2023-04-18T05:17:43.322Z,6.3
2023-04-18T05:20:31.389Z,6.3
2023-04-18T05:23:19.136Z,6.4
2023-04-18T05:26:06.837Z,6.4
2023-04-18T05:28:54.563Z,6.5
2023-04-18T05:31:42.387Z,6.6
2023-04-18T05:34:30.063Z,6.6
2023-04-18T05:37:18.029Z,6.6
2023-04-18T05:40:05.741Z,6.7
2023-04-18T05:42:53.625Z,6.7
2023-04-18T05:45:41.310Z,6.8
2023-04-18T05:48:29.191Z,6.8
2023-04-18T05:51:16.876Z,6.9
2023-04-18T05:54:04.787Z,7
2023-04-18T05:56:52.641Z,7.1
2023-04-18T05:59:40.480Z,7.2
2023-04-18T06:02:28.370Z,7.4
2023-04-18T06:05:16.778Z,7.5
2023-04-18T06:08:05.023Z,7.8
2023-04-18T06:10:52.903Z,8
2023-04-18T06:13:40.734Z,8.1
2023-04-18T06:16:28.630Z,8.2
2023-04-18T06:19:16.495Z,8.3
2023-04-18T06:22:04.327Z,8.3
2023-04-18T06:24:52.164Z,8.4
2023-04-18T06:27:56.256Z,8.5
2023-04-18T06:30:44.197Z,8.6
2023-04-18T06:33:32.214Z,9.1
2023-04-18T06:36:19.953Z,9.8
2023-04-18T06:39:07.718Z,10.8
2023-04-18T06:41:55.464Z,11.5
2023-04-18T06:44:43.229Z,12.2
2023-04-18T06:47:31.043Z,12.8
2023-04-18T06:50:19.012Z,13.2
2023-04-18T06:53:06.788Z,13.7
2023-04-18T06:55:54.425Z,14
2023-04-18T06:58:42.198Z,14.2
2023-04-18T07:01:30.857Z,14.4
2023-04-18T07:04:19.235Z,14.6
2023-04-18T07:07:08.006Z,14.9
2023-04-18T07:09:55.737Z,15.3
2023-04-18T07:12:43.474Z,15.5
2023-04-18T07:15:31.099Z,16.2
2023-04-18T07:18:26.695Z,16.8
2023-04-18T07:21:25.154Z,16.9
2023-04-18T07:24:13.228Z,16.8
2023-04-18T07:27:01.941Z,16.9
2023-04-18T07:29:49.689Z,16.7
2023-04-18T07:32:37.273Z,16.6
2023-04-18T07:35:25.527Z,16.4
2023-04-18T07:38:13.388Z,16.4
2023-04-18T07:41:01.215Z,16
2023-04-18T07:43:49.413Z,14.7
2023-04-18T07:46:37.305Z,13.3
2023-04-18T07:49:25.130Z,12.2
2023-04-18T07:52:12.919Z,11.5
2023-04-18T07:55:00.751Z,11
2023-04-18T07:57:48.580Z,10.6
2023-04-18T08:00:36.268Z,10.3
2023-04-18T08:03:24.550Z,10.3
2023-04-18T08:06:12.544Z,10.3
2023-04-18T08:09:00.568Z,10.3
2023-04-18T08:11:48.370Z,10.2
2023-04-18T08:14:36.159Z,10.1
2023-04-18T08:17:23.834Z,10
2023-04-18T08:20:11.717Z,9.9
2023-04-18T08:23:05.522Z,9.7
2023-04-18T08:25:59.250Z,9.5
2023-04-18T08:28:47.150Z,9.4
2023-04-18T08:31:34.913Z,9.2
2023-04-18T08:34:22.766Z,9.2
2023-04-18T08:37:10.603Z,9.2
2023-04-18T08:39:58.302Z,9.4
2023-04-18T08:42:46.212Z,9.5
2023-04-18T08:45:34.020Z,9.7
2023-04-18T08:48:22.243Z,9.8
2023-04-18T08:51:09.821Z,9.8
2023-04-18T08:53:57.652Z,9.9
2023-04-18T08:56:45.340Z,9.8
2023-04-18T08:59:33.200Z,9.8
2023-04-18T09:02:21.240Z,10
2023-04-18T09:05:09.195Z,10.1
2023-04-18T09:07:57.064Z,10.2
2023-04-18T09:10:46.604Z,10.2
2023-04-18T09:13:34.696Z,10.2
2023-04-18T09:16:22.792Z,10.2
2023-04-18T09:19:10.802Z,10.2
2023-04-18T09:21:58.825Z,10.2
2023-04-18T09:24:46.533Z,10.1
2023-04-18T09:27:34.181Z,10.1
2023-04-18T09:30:24.005Z,10.1
2023-04-18T09:33:11.966Z,10
2023-04-18T09:35:59.783Z,10
2023-04-18T09:38:47.617Z,9.8
2023-04-18T09:41:35.295Z,9.7
2023-04-18T09:44:23.196Z,9.6
2023-04-18T09:47:14.238Z,9.6
2023-04-18T09:50:02.090Z,9.6
2023-04-18T09:52:49.909Z,9.6
2023-04-18T09:55:37.536Z,9.7
2023-04-18T09:58:25.220Z,9.7
2023-04-18T10:01:15.234Z,9.8
2023-04-18T10:04:03.411Z,9.8
2023-04-18T10:06:51.479Z,9.8
2023-04-18T10:09:39.417Z,9.8
2023-04-18T10:12:27.148Z,9.8
2023-04-18T10:15:14.844Z,9.9
2023-04-18T10:18:05.594Z,10
2023-04-18T10:20:54.361Z,10
2023-04-18T10:23:42.325Z,10.1
2023-04-18T10:26:30.320Z,10.2
2023-04-18T10:29:18.051Z,10.2
2023-04-18T10:32:05.892Z,10.3
2023-04-18T10:34:53.567Z,10.4
2023-04-18T10:37:41.244Z,10.6
2023-04-18T10:40:29.228Z,10.9
2023-04-18T10:43:17.068Z,11.1
2023-04-18T10:46:04.872Z,11.4
2023-04-18T10:48:52.634Z,11.5
2023-04-18T10:51:40.429Z,11.6
2023-04-18T10:54:28.157Z,11.6
2023-04-18T10:57:16.091Z,11.7
2023-04-18T11:00:04.072Z,11.7
2023-04-18T11:02:52.262Z,11.7
2023-04-18T11:05:40.414Z,11.7
2023-04-18T11:08:29.293Z,11.7
2023-04-18T11:11:17.205Z,11.7
2023-04-18T11:14:05.124Z,11.9
2023-04-18T11:16:53.170Z,11.9
2023-04-18T11:19:41.171Z,11.9
2023-04-18T11:22:29.004Z,12
2023-04-18T11:25:16.687Z,12.1
2023-04-18T11:28:04.489Z,12.4
2023-04-18T11:30:52.426Z,12.5
2023-04-18T11:33:40.287Z,12.5
2023-04-18T11:36:28.224Z,12.7
2023-04-18T11:39:16.106Z,12.8
2023-04-18T11:42:03.917Z,13
2023-04-18T11:44:51.686Z,13.2
2023-04-18T11:47:39.752Z,13.4
2023-04-18T11:50:27.599Z,13.9
2023-04-18T11:53:15.360Z,14.2
2023-04-18T11:56:03.220Z,14.4
2023-04-18T11:58:50.999Z,14.2
2023-04-18T12:01:38.736Z,14
2023-04-18T12:04:27.490Z,13.9
2023-04-18T12:07:15.752Z,13.7
2023-04-18T12:10:03.815Z,13.5
2023-04-18T12:12:51.380Z,13.5
2023-04-18T12:15:39.178Z,13.3
2023-04-18T12:18:27.277Z,13.2
2023-04-18T12:21:15.068Z,13.1
2023-04-18T12:24:02.954Z,13.2
2023-04-18T12:26:50.680Z,13.3
2023-04-18T12:29:38.464Z,13.3
2023-04-18T12:32:26.429Z,13.5
2023-04-18T12:35:14.170Z,13.6
2023-04-18T12:38:02.066Z,13.9
2023-04-18T12:40:49.903Z,14.5
2023-04-18T12:43:37.739Z,15
2023-04-18T12:46:25.459Z,15.3
2023-04-18T12:49:13.360Z,15.6
2023-04-18T12:52:00.984Z,16.1
2023-04-18T12:54:48.852Z,16.4
2023-04-18T12:57:36.692Z,16.6
2023-04-18T13:00:24.533Z,16.5
2023-04-18T13:03:13.323Z,16.2
2023-04-18T13:06:02.551Z,16
2023-04-18T13:08:50.140Z,15.8
2023-04-18T13:11:37.848Z,15.6
2023-04-18T13:14:25.598Z,15.4
2023-04-18T13:17:13.381Z,15.4
2023-04-18T13:20:01.064Z,15.7
2023-04-18T13:22:48.894Z,15.7
2023-04-18T13:25:36.532Z,15.5
2023-04-18T13:28:24.238Z,15.2
2023-04-18T13:31:12.042Z,15.2
2023-04-18T13:33:59.850Z,15.2
2023-04-18T13:36:48.069Z,15.1
2023-04-18T13:39:36.603Z,15.1
2023-04-18T13:42:24.257Z,15
2023-04-18T13:45:12.216Z,15.3
2023-04-18T13:48:00.025Z,15.6
2023-04-18T13:50:47.854Z,16
2023-04-18T13:53:35.484Z,16.6
2023-04-18T13:56:23.260Z,17.2
2023-04-18T13:59:10.914Z,17.8
2023-04-18T14:01:59.029Z,18.2
2023-04-18T14:04:47.518Z,18.4
2023-04-18T14:07:35.298Z,18.6
2023-04-18T14:10:23.001Z,18.7
2023-04-18T14:13:10.742Z,18.9
2023-04-18T14:15:58.624Z,18.8
2023-04-18T14:18:46.717Z,18.6
2023-04-18T14:21:34.507Z,18.5
2023-04-18T14:24:22.293Z,18.5
2023-04-18T14:27:09.961Z,18.4
2023-04-18T14:29:57.683Z,18.5
2023-04-18T14:32:45.247Z,18.6
2023-04-18T14:35:33.057Z,18.9
2023-04-18T14:38:20.726Z,19
2023-04-18T14:41:08.524Z,19.2
2023-04-18T14:43:56.200Z,19.2
2023-04-18T14:46:44.111Z,19.1
2023-04-18T14:49:31.816Z,18.7
2023-04-18T14:52:19.724Z,18.6
2023-04-18T14:55:07.377Z,18.5
2023-04-18T14:57:56.594Z,18.4
2023-04-18T15:00:44.324Z,18.4
2023-04-18T15:03:32.461Z,18.6
2023-04-18T15:06:20.603Z,18.7
2023-04-18T15:09:08.457Z,18.7
2023-04-18T15:11:56.122Z,18.4
2023-04-18T15:14:44.306Z,18.6
2023-04-18T15:17:32.004Z,18.7
2023-04-18T15:20:20.774Z,18.7
2023-04-18T15:23:11.558Z,18.8
2023-04-18T15:25:59.552Z,18.7
2023-04-18T15:28:47.432Z,18.4
2023-04-18T15:31:36.693Z,17.9
2023-04-18T15:34:26.785Z,17.4
2023-04-18T15:37:14.481Z,17
2023-04-18T15:40:02.129Z,17.2
2023-04-18T15:42:49.863Z,17.4
2023-04-18T15:45:37.622Z,17.2
2023-04-18T15:48:25.599Z,16.8
2023-04-18T15:51:13.336Z,16.5
2023-04-18T15:54:01.185Z,16.2
2023-04-18T15:56:48.878Z,16.1
2023-04-18T15:59:36.699Z,16
2023-04-18T16:02:24.838Z,16.1
2023-04-18T16:05:13.115Z,16.6
2023-04-18T16:08:00.842Z,17.2
2023-04-18T16:10:48.540Z,17.5
2023-04-18T16:13:38.124Z,17.6
2023-04-18T16:16:26.325Z,17.9
2023-04-18T16:19:14.329Z,18
2023-04-18T16:22:02.036Z,17.6
2023-04-18T16:24:49.746Z,17.2
2023-04-18T16:27:37.531Z,17.2
2023-04-18T16:30:25.286Z,17.3
2023-04-18T16:33:13.275Z,17.4
2023-04-18T16:36:01.294Z,17.4
2023-04-18T16:38:48.919Z,17.2
2023-04-18T16:41:36.654Z,16.9
2023-04-18T16:44:24.266Z,16.5
2023-04-18T16:47:12.062Z,16.1
2023-04-18T16:49:59.893Z,15.8
2023-04-18T16:52:47.944Z,15.6
2023-04-18T16:55:35.552Z,15.3
2023-04-18T16:58:23.239Z,15.1
2023-04-18T17:01:10.941Z,15
2023-04-18T17:03:58.916Z,14.9
2023-04-18T17:06:46.954Z,14.7
2023-04-18T17:09:34.840Z,14.6
2023-04-18T17:12:22.528Z,14.5
2023-04-18T17:15:10.064Z,14.4
2023-04-18T17:17:57.957Z,14.3
2023-04-18T17:20:45.607Z,14.3
2023-04-18T17:23:33.476Z,14.2
2023-04-18T17:26:21.142Z,14.2
2023-04-18T17:29:08.901Z,14.1
2023-04-18T17:31:56.637Z,14
2023-04-18T17:34:44.393Z,13.9
2023-04-18T17:37:31.964Z,13.9
2023-04-18T17:40:19.915Z,13.7
2023-04-18T17:43:07.691Z,13.6
2023-04-18T17:45:55.407Z,13.5
2023-04-18T17:48:43.393Z,13.4
2023-04-18T17:51:31.022Z,13.3
2023-04-18T17:54:18.686Z,13.2
2023-04-18T17:57:06.415Z,13.1
2023-04-18T17:59:54.135Z,13.1
2023-04-18T18:02:42.300Z,13
2023-04-18T18:05:30.631Z,12.9
2023-04-18T18:08:19.202Z,12.8
2023-04-18T18:11:06.788Z,12.8
2023-04-18T18:13:54.676Z,12.7
2023-04-18T18:16:42.499Z,12.5
2023-04-18T18:19:30.506Z,12.5
2023-04-18T18:22:18.342Z,12.4
2023-04-18T18:25:06.070Z,12.3
2023-04-18T18:27:53.772Z,12.2
2023-04-18T18:30:41.598Z,12.2
2023-04-18T18:33:29.408Z,12.1
2023-04-18T18:36:16.984Z,12
2023-04-18T18:39:04.605Z,11.9
2023-04-18T18:41:52.220Z,11.9
2023-04-18T18:44:39.901Z,11.9
2023-04-18T18:47:27.817Z,11.7
2023-04-18T18:50:15.749Z,11.7
2023-04-18T18:53:03.782Z,11.6
2023-04-18T18:55:51.517Z,11.5
2023-04-18T18:58:39.309Z,11.5
2023-04-18T19:01:27.145Z,11.5
2023-04-18T19:04:15.401Z,11.4
2023-04-18T19:07:03.275Z,11.4
2023-04-18T19:09:50.897Z,11.3
2023-04-18T19:12:38.628Z,11.3
2023-04-18T19:15:26.194Z,11.2
2023-04-18T19:18:14.093Z,11.1
2023-04-18T19:21:01.853Z,11.1
2023-04-18T19:23:49.669Z,11.1
2023-04-18T19:26:37.327Z,11
2023-04-18T19:29:25.083Z,11
2023-04-18T19:32:13.023Z,11
2023-04-18T19:35:00.742Z,10.9
2023-04-18T19:37:48.530Z,10.9
2023-04-18T19:40:36.265Z,10.8
2023-04-18T19:43:24.093Z,10.7
2023-04-18T19:46:11.912Z,10.7
2023-04-18T19:48:59.708Z,10.6
2023-04-18T19:51:47.286Z,10.6
2023-04-18T19:54:35.201Z,10.5
2023-04-18T19:57:23.036Z,10.5
2023-04-18T20:00:10.792Z,10.5
2023-04-18T20:03:10.640Z,10.4
2023-04-18T20:05:59.500Z,10.4
2023-04-18T20:08:47.220Z,10.4
2023-04-18T20:11:35.088Z,10.3
2023-04-18T20:14:22.681Z,10.3
2023-04-18T20:17:10.642Z,10.3
2023-04-18T20:19:58.292Z,10.2
2023-04-18T20:22:45.850Z,10.1
2023-04-18T20:25:33.592Z,10.1
2023-04-18T20:28:21.493Z,10.1
2023-04-18T20:31:09.380Z,10.1
2023-04-18T20:33:57.164Z,10
2023-04-18T20:36:44.772Z,10
2023-04-18T20:39:32.637Z,10
2023-04-18T20:42:20.335Z,10
2023-04-18T20:45:08.253Z,10
2023-04-18T20:47:56.154Z,9.9
2023-04-18T20:50:44.137Z,9.8
2023-04-18T20:53:31.827Z,9.8
2023-04-18T20:56:19.710Z,9.7
2023-04-18T20:59:07.390Z,9.7
2023-04-18T21:01:55.444Z,9.7
2023-04-18T21:04:44.551Z,9.7
2023-04-18T21:07:32.536Z,9.8
2023-04-18T21:10:20.363Z,9.8
2023-04-18T21:13:08.135Z,9.8
2023-04-18T21:15:56.477Z,9.9
2023-04-18T21:18:44.350Z,10
2023-04-18T21:21:32.014Z,10
2023-04-18T21:24:19.791Z,10
2023-04-18T21:27:07.359Z,10
2023-04-18T21:29:55.005Z,10.1
2023-04-18T21:32:42.649Z,10.1
2023-04-18T21:35:30.540Z,10.1
2023-04-18T21:38:18.246Z,10.1
2023-04-18T21:41:05.929Z,10.2
2023-04-18T21:43:53.559Z,10.2
2023-04-18T21:46:41.549Z,10.2
2023-04-18T21:53:19.502Z,10.2
2023-04-18T21:56:07.263Z,10.2
2023-04-18T21:58:54.883Z,10.2
2023-04-18T22:01:42.722Z,10.3
2023-04-18T22:04:30.744Z,10.3
2023-04-18T22:07:18.700Z,10.3
2023-04-18T22:10:06.549Z,10.3
2023-04-18T22:12:54.380Z,10.3
2023-04-18T22:15:42.149Z,10.3
2023-04-18T22:18:30.133Z,10.3
2023-04-18T22:21:17.702Z,10.3
2023-04-18T22:24:05.545Z,10.3
2023-04-18T22:26:53.261Z,10.3
2023-04-18T22:29:41.111Z,10.3
2023-04-18T22:32:28.798Z,10.3
2023-04-18T22:35:16.731Z,10.3
2023-04-18T22:38:04.371Z,10.3
2023-04-18T22:40:52.259Z,10.3
2023-04-18T22:43:40.144Z,10.3
2023-04-18T22:46:28.042Z,10.3
2023-04-18T22:49:15.805Z,10.3
2023-04-18T22:52:03.617Z,10.3
2023-04-18T22:54:51.375Z,10.3
2023-04-18T22:57:39.204Z,10.3
2023-04-18T23:00:26.976Z,10.3
2023-04-18T23:03:15.314Z,10.3
2023-04-18T23:06:03.278Z,10.3
2023-04-18T23:08:51.103Z,10.3
2023-04-18T23:11:38.734Z,10.3
2023-04-18T23:14:26.465Z,10.3
2023-04-18T23:17:14.269Z,10.3
2023-04-18T23:20:02.300Z,10.3
2023-04-18T23:22:50.091Z,10.3
2023-04-18T23:25:37.752Z,10.3
2023-04-18T23:28:25.385Z,10.3
2023-04-18T23:31:13.274Z,10.4
2023-04-18T23:34:01.228Z,10.3
2023-04-18T23:36:48.990Z,10.3
2023-04-18T23:39:36.670Z,10.4
2023-04-18T23:42:24.503Z,10.3
2023-04-18T23:45:12.184Z,10.4
2023-04-18T23:48:00.105Z,10.4
2023-04-18T23:50:48.060Z,10.3
2023-04-18T23:53:35.823Z,10.4
2023-04-18T23:56:23.414Z,10.3
2023-04-18T23:59:11.250Z,10.4
